sensor_id;sensor_type;location;lat;lon;timestamp;pressure;altitude;pressure_sealevel;temperature;humidity
23281;BME280;11809;56.390;-3.266;2022-10-16T00:01:21;98510.44;;;14.87;61.76
23281;BME280;11809;56.390;-3.266;2022-10-16T00:03:49;98512.34;;;14.85;61.94
23281;BME280;11809;56.390;-3.266;2022-10-16T00:06:19;98504.31;;;14.87;61.76
23281;BME280;11809;56.390;-3.266;2022-10-16T00:08:47;98504.56;;;14.84;62.00
23281;BME280;11809;56.390;-3.266;2022-10-16T00:11:18;98505.53;;;14.83;61.84
23281;BME280;11809;56.390;-3.266;2022-10-16T00:13:46;98487.19;;;14.81;61.92
23281;BME280;11809;56.390;-3.266;2022-10-16T00:16:15;98499.56;;;14.81;61.88
23281;BME280;11809;56.390;-3.266;2022-10-16T00:18:43;98501.38;;;14.80;61.97
23281;BME280;11809;56.390;-3.266;2022-10-16T00:21:13;98509.31;;;14.80;62.09
23281;BME280;11809;56.390;-3.266;2022-10-16T00:23:41;98503.31;;;14.78;62.07
23281;BME280;11809;56.390;-3.266;2022-10-16T00:26:12;98508.88;;;14.75;62.07
23281;BME280;11809;56.390;-3.266;2022-10-16T00:28:39;98512.38;;;14.76;62.18
23281;BME280;11809;56.390;-3.266;2022-10-16T00:31:09;98511.41;;;14.77;62.31
23281;BME280;11809;56.390;-3.266;2022-10-16T00:33:38;98507.34;;;14.73;62.14
23281;BME280;11809;56.390;-3.266;2022-10-16T00:36:06;98520.47;;;14.74;62.15
23281;BME280;11809;56.390;-3.266;2022-10-16T00:38:34;98529.34;;;14.73;62.27
23281;BME280;11809;56.390;-3.266;2022-10-16T00:41:01;98535.59;;;14.72;62.23
23281;BME280;11809;56.390;-3.266;2022-10-16T00:49:10;98547.97;;;14.72;62.08
23281;BME280;11809;56.390;-3.266;2022-10-16T00:51:47;98543.53;;;14.72;62.41
23281;BME280;11809;56.390;-3.266;2022-10-16T00:54:18;98550.78;;;14.70;62.21
23281;BME280;11809;56.390;-3.266;2022-10-16T00:56:47;98549.09;;;14.69;62.41
23281;BME280;11809;56.390;-3.266;2022-10-16T00:59:29;98549.09;;;14.69;62.31
23281;BME280;11809;56.390;-3.266;2022-10-16T01:01:57;98554.38;;;14.69;62.48
23281;BME280;11809;56.390;-3.266;2022-10-16T01:04:25;98554.69;;;14.66;62.63
23281;BME280;11809;56.390;-3.266;2022-10-16T01:18:44;98570.81;;;14.63;62.50
23281;BME280;11809;56.390;-3.266;2022-10-16T01:21:31;98589.31;;;14.63;62.49
23281;BME280;11809;56.390;-3.266;2022-10-16T01:29:09;98615.03;;;14.61;62.68
23281;BME280;11809;56.390;-3.266;2022-10-16T01:31:40;98622.00;;;14.62;62.62
23281;BME280;11809;56.390;-3.266;2022-10-16T01:34:27;98637.88;;;14.62;62.77
23281;BME280;11809;56.390;-3.266;2022-10-16T01:37:22;98634.53;;;14.60;62.63
23281;BME280;11809;56.390;-3.266;2022-10-16T01:39:53;98638.81;;;14.61;62.67
23281;BME280;11809;56.390;-3.266;2022-10-16T01:42:26;98642.56;;;14.58;62.44
23281;BME280;11809;56.390;-3.266;2022-10-16T01:44:56;98647.88;;;14.58;62.61
23281;BME280;11809;56.390;-3.266;2022-10-16T01:47:26;98657.63;;;14.58;62.38
23281;BME280;11809;56.390;-3.266;2022-10-16T01:49:55;98660.13;;;14.60;62.50
23281;BME280;11809;56.390;-3.266;2022-10-16T01:52:26;98668.19;;;14.58;62.70
23281;BME280;11809;56.390;-3.266;2022-10-16T01:54:56;98673.75;;;14.55;62.53
23281;BME280;11809;56.390;-3.266;2022-10-16T01:57:25;98685.16;;;14.55;62.53
23281;BME280;11809;56.390;-3.266;2022-10-16T01:59:56;98691.25;;;14.56;62.70
23281;BME280;11809;56.390;-3.266;2022-10-16T02:02:26;98697.41;;;14.56;62.54
23281;BME280;11809;56.390;-3.266;2022-10-16T02:04:58;98707.13;;;14.56;62.56
23281;BME280;11809;56.390;-3.266;2022-10-16T02:07:28;98710.75;;;14.55;62.47
23281;BME280;11809;56.390;-3.266;2022-10-16T02:09:55;98723.97;;;14.55;62.38
23281;BME280;11809;56.390;-3.266;2022-10-16T02:12:27;98732.75;;;14.55;62.54
23281;BME280;11809;56.390;-3.266;2022-10-16T02:14:55;98723.25;;;14.53;62.73
23281;BME280;11809;56.390;-3.266;2022-10-16T02:17:23;98733.72;;;14.54;62.53
23281;BME280;11809;56.390;-3.266;2022-10-16T02:19:51;98741.63;;;14.54;62.51
23281;BME280;11809;56.390;-3.266;2022-10-16T02:22:27;98742.59;;;14.53;nan
23281;BME280;11809;56.390;-3.266;2022-10-16T02:24:59;98748.03;;;14.52;62.46
23281;BME280;11809;56.390;-3.266;2022-10-16T02:30:37;98754.28;;;14.51;62.77
23281;BME280;11809;56.390;-3.266;2022-10-16T02:33:08;98747.19;;;14.51;62.69
23281;BME280;11809;56.390;-3.266;2022-10-16T02:35:37;98748.97;;;14.51;62.84
23281;BME280;11809;56.390;-3.266;2022-10-16T02:38:05;98762.19;;;14.51;62.63
23281;BME280;11809;56.390;-3.266;2022-10-16T02:40:33;98752.72;;;14.48;62.83
23281;BME280;11809;56.390;-3.266;2022-10-16T02:43:00;98771.13;;;14.50;62.65
23281;BME280;11809;56.390;-3.266;2022-10-16T02:45:29;98771.13;;;14.50;62.50
23281;BME280;11809;56.390;-3.266;2022-10-16T02:47:56;98779.16;;;14.48;62.62
23281;BME280;11809;56.390;-3.266;2022-10-16T02:50:23;98781.94;;;14.47;62.69
23281;BME280;11809;56.390;-3.266;2022-10-16T02:52:51;98787.22;;;14.47;62.73
23281;BME280;11809;56.390;-3.266;2022-10-16T02:55:18;98798.75;;;14.46;62.75
23281;BME280;11809;56.390;-3.266;2022-10-16T02:57:45;98799.75;;;14.45;62.70
23281;BME280;11809;56.390;-3.266;2022-10-16T03:00:14;98806.94;;;14.43;62.69
23281;BME280;11809;56.390;-3.266;2022-10-16T03:02:42;98805.16;;;14.43;62.60
23281;BME280;11809;56.390;-3.266;2022-10-16T03:05:09;98799.84;;;14.43;62.57
23281;BME280;11809;56.390;-3.266;2022-10-16T03:07:37;98814.88;;;14.43;62.63
23281;BME280;11809;56.390;-3.266;2022-10-16T03:10:04;98813.22;;;14.42;62.62
23281;BME280;11809;56.390;-3.266;2022-10-16T03:12:31;98816.81;;;14.41;62.71
23281;BME280;11809;56.390;-3.266;2022-10-16T03:14:58;98817.78;;;14.40;62.59
23281;BME280;11809;56.390;-3.266;2022-10-16T03:17:25;98824.88;;;14.39;62.64
23281;BME280;11809;56.390;-3.266;2022-10-16T03:19:52;98833.63;;;14.40;62.59
23281;BME280;11809;56.390;-3.266;2022-10-16T03:22:19;98831.28;;;14.37;62.55
23281;BME280;11809;56.390;-3.266;2022-10-16T03:24:46;98852.28;;;14.38;62.59
23281;BME280;11809;56.390;-3.266;2022-10-16T03:27:13;98858.50;;;14.37;62.55
23281;BME280;11809;56.390;-3.266;2022-10-16T03:29:40;98865.63;;;14.37;62.67
23281;BME280;11809;56.390;-3.266;2022-10-16T03:32:07;98863.94;;;14.36;62.47
23281;BME280;11809;56.390;-3.266;2022-10-16T03:34:34;98863.94;;;14.36;62.41
23281;BME280;11809;56.390;-3.266;2022-10-16T03:37:00;98860.44;;;14.35;62.47
23281;BME280;11809;56.390;-3.266;2022-10-16T03:39:27;98885.22;;;14.34;62.68
23281;BME280;11809;56.390;-3.266;2022-10-16T03:41:54;98876.44;;;14.34;62.32
23281;BME280;11809;56.390;-3.266;2022-10-16T03:44:21;98880.03;;;14.33;62.64
23281;BME280;11809;56.390;-3.266;2022-10-16T03:46:48;98883.66;;;14.32;62.62
23281;BME280;11809;56.390;-3.266;2022-10-16T03:49:15;98875.81;;;14.30;62.68
23281;BME280;11809;56.390;-3.266;2022-10-16T03:51:41;98879.31;;;14.31;62.52
23281;BME280;11809;56.390;-3.266;2022-10-16T03:54:09;98873.31;;;14.29;62.72
23281;BME280;11809;56.390;-3.266;2022-10-16T03:56:36;98874.97;;;14.30;62.74
23281;BME280;11809;56.390;-3.266;2022-10-16T03:59:03;98880.41;;;14.28;62.75
23281;BME280;11809;56.390;-3.266;2022-10-16T04:01:31;98882.22;;;14.28;62.55
23281;BME280;11809;56.390;-3.266;2022-10-16T04:03:57;98889.44;;;14.26;62.55
23281;BME280;11809;56.390;-3.266;2022-10-16T04:06:24;98894.81;;;14.24;62.47
23281;BME280;11809;56.390;-3.266;2022-10-16T04:08:51;98902.75;;;14.24;62.72
23281;BME280;11809;56.390;-3.266;2022-10-16T04:11:18;98909.97;;;14.22;62.61
23281;BME280;11809;56.390;-3.266;2022-10-16T04:13:45;98916.94;;;14.23;62.58
23281;BME280;11809;56.390;-3.266;2022-10-16T04:16:12;98909.97;;;14.22;62.75
23281;BME280;11809;56.390;-3.266;2022-10-16T04:18:39;98918.84;;;14.21;62.52
23281;BME280;11809;56.390;-3.266;2022-10-16T04:21:06;98920.78;;;14.19;62.72
23281;BME280;11809;56.390;-3.266;2022-10-16T04:23:33;98919.13;;;14.18;62.52
23281;BME280;11809;56.390;-3.266;2022-10-16T04:26:00;98918.28;;;14.18;62.71
23281;BME280;11809;56.390;-3.266;2022-10-16T04:28:28;98906.03;;;14.17;62.54
23281;BME280;11809;56.390;-3.266;2022-10-16T04:30:55;98895.47;;;14.17;62.94
23281;BME280;11809;56.390;-3.266;2022-10-16T04:33:22;98904.38;;;14.16;62.65
23281;BME280;11809;56.390;-3.266;2022-10-16T04:35:48;98901.97;;;14.13;62.55
23281;BME280;11809;56.390;-3.266;2022-10-16T04:38:22;98908.22;;;14.12;62.73
23281;BME280;11809;56.390;-3.266;2022-10-16T04:40:49;98907.25;;;14.13;62.47
23281;BME280;11809;56.390;-3.266;2022-10-16T04:43:16;98909.06;;;14.12;62.60
23281;BME280;11809;56.390;-3.266;2022-10-16T04:45:43;98910.16;;;14.10;62.77
23281;BME280;11809;56.390;-3.266;2022-10-16T04:48:10;98918.78;;;14.12;62.71
23281;BME280;11809;56.390;-3.266;2022-10-16T04:50:37;98918.06;;;14.10;62.81
23281;BME280;11809;56.390;-3.266;2022-10-16T04:53:05;98917.38;;;14.08;62.82
23281;BME280;11809;56.390;-3.266;2022-10-16T04:55:32;98925.28;;;14.08;62.79
23281;BME280;11809;56.390;-3.266;2022-10-16T04:57:59;98918.31;;;14.07;62.56
23281;BME280;11809;56.390;-3.266;2022-10-16T05:00:26;98915.78;;;14.05;62.88
23281;BME280;11809;56.390;-3.266;2022-10-16T05:02:53;98929.00;;;14.05;62.80
23281;BME280;11809;56.390;-3.266;2022-10-16T05:05:20;98939.56;;;14.05;62.76
23281;BME280;11809;56.390;-3.266;2022-10-16T05:07:47;98940.41;;;14.06;62.69
23281;BME280;11809;56.390;-3.266;2022-10-16T05:10:16;98937.91;;;14.04;62.62
23281;BME280;11809;56.390;-3.266;2022-10-16T05:12:43;98940.66;;;14.03;62.71
23281;BME280;11809;56.390;-3.266;2022-10-16T05:15:10;98958.19;;;14.04;62.89
23281;BME280;11809;56.390;-3.266;2022-10-16T05:17:37;98959.13;;;14.03;62.65
23281;BME280;11809;56.390;-3.266;2022-10-16T05:20:10;98964.56;;;14.01;62.60
23281;BME280;11809;56.390;-3.266;2022-10-16T05:22:37;98963.72;;;14.01;62.77
23281;BME280;11809;56.390;-3.266;2022-10-16T05:25:05;98973.56;;;13.98;62.94
23281;BME280;11809;56.390;-3.266;2022-10-16T05:27:32;98974.41;;;13.99;62.94
23281;BME280;11809;56.390;-3.266;2022-10-16T05:29:58;98971.06;;;13.97;62.83
23281;BME280;11809;56.390;-3.266;2022-10-16T05:32:25;98979.78;;;13.97;62.89
23281;BME280;11809;56.390;-3.266;2022-10-16T05:34:52;98986.78;;;13.98;63.22
23281;BME280;11809;56.390;-3.266;2022-10-16T05:37:19;98984.84;;;14.01;63.23
23281;BME280;11809;56.390;-3.266;2022-10-16T05:39:46;98991.81;;;14.02;63.07
23281;BME280;11809;56.390;-3.266;2022-10-16T05:42:13;98996.13;;;14.03;63.21
23281;BME280;11809;56.390;-3.266;2022-10-16T05:44:39;98994.44;;;14.02;63.43
23281;BME280;11809;56.390;-3.266;2022-10-16T05:47:06;99004.88;;;14.03;63.48
23281;BME280;11809;56.390;-3.266;2022-10-16T05:49:33;98995.41;;;14.01;63.65
23281;BME280;11809;56.390;-3.266;2022-10-16T05:52:06;99005.03;;;14.02;63.78
23281;BME280;11809;56.390;-3.266;2022-10-16T05:54:32;99005.13;;;14.00;63.84
23281;BME280;11809;56.390;-3.266;2022-10-16T05:56:59;98998.88;;;14.01;63.65
23281;BME280;11809;56.390;-3.266;2022-10-16T05:59:26;99000.59;;;14.02;63.56
23281;BME280;11809;56.390;-3.266;2022-10-16T06:01:53;98998.88;;;14.01;63.83
23281;BME280;11809;56.390;-3.266;2022-10-16T06:04:20;99004.88;;;14.03;64.10
23281;BME280;11809;56.390;-3.266;2022-10-16T06:06:47;99002.13;;;14.05;64.19
23281;BME280;11809;56.390;-3.266;2022-10-16T06:09:13;99017.75;;;14.08;64.17
23281;BME280;11809;56.390;-3.266;2022-10-16T06:11:40;99014.13;;;14.09;64.41
23281;BME280;11809;56.390;-3.266;2022-10-16T06:14:08;99018.56;;;14.08;64.52
23281;BME280;11809;56.390;-3.266;2022-10-16T06:16:36;99033.31;;;14.11;64.52
23281;BME280;11809;56.390;-3.266;2022-10-16T06:19:03;99042.22;;;14.10;64.87
23281;BME280;11809;56.390;-3.266;2022-10-16T06:21:33;99046.53;;;14.11;64.37
23281;BME280;11809;56.390;-3.266;2022-10-16T06:23:59;99049.91;;;14.13;64.71
23281;BME280;11809;56.390;-3.266;2022-10-16T06:26:29;99061.19;;;14.15;64.46
23281;BME280;11809;56.390;-3.266;2022-10-16T06:28:58;99062.88;;;14.16;64.67
23281;BME280;11809;56.390;-3.266;2022-10-16T06:31:26;99069.81;;;14.17;64.96
23281;BME280;11809;56.390;-3.266;2022-10-16T06:33:55;99070.53;;;14.19;64.88
23281;BME280;11809;56.390;-3.266;2022-10-16T06:36:23;99077.75;;;14.17;65.15
23281;BME280;11809;56.390;-3.266;2022-10-16T06:38:51;99089.03;;;14.19;65.28
23281;BME280;11809;56.390;-3.266;2022-10-16T06:41:21;99097.69;;;14.21;64.85
23281;BME280;11809;56.390;-3.266;2022-10-16T06:43:48;99097.69;;;14.21;64.74
23281;BME280;11809;56.390;-3.266;2022-10-16T06:46:17;99100.34;;;14.21;64.82
23281;BME280;11809;56.390;-3.266;2022-10-16T06:48:45;99112.47;;;14.23;64.96
23281;BME280;11809;56.390;-3.266;2022-10-16T06:51:15;99111.63;;;14.23;64.67
23281;BME280;11809;56.390;-3.266;2022-10-16T06:53:45;99134.41;;;14.24;65.16
23281;BME280;11809;56.390;-3.266;2022-10-16T06:56:28;99142.84;;;14.29;65.06
23281;BME280;11809;56.390;-3.266;2022-10-16T06:58:59;99153.41;;;14.29;64.68
23281;BME280;11809;56.390;-3.266;2022-10-16T07:01:27;99162.69;;;14.34;64.47
23281;BME280;11809;56.390;-3.266;2022-10-16T07:03:54;99150.28;;;14.35;64.00
23281;BME280;11809;56.390;-3.266;2022-10-16T07:06:23;99151.84;;;14.37;64.24
23281;BME280;11809;56.390;-3.266;2022-10-16T07:08:51;99159.53;;;14.40;64.00
23281;BME280;11809;56.390;-3.266;2022-10-16T07:11:20;99168.31;;;14.41;64.42
23281;BME280;11809;56.390;-3.266;2022-10-16T07:13:49;99176.63;;;14.47;64.52
23281;BME280;11809;56.390;-3.266;2022-10-16T07:16:25;99172.75;;;14.51;65.01
23281;BME280;11809;56.390;-3.266;2022-10-16T07:18:54;99173.38;;;14.55;64.99
23281;BME280;11809;56.390;-3.266;2022-10-16T07:21:29;99182.47;;;14.62;65.25
23281;BME280;11809;56.390;-3.266;2022-10-16T07:23:58;99199.78;;;14.66;65.08
23281;BME280;11809;56.390;-3.266;2022-10-16T07:26:27;99217.06;;;14.70;65.58
23281;BME280;11809;56.390;-3.266;2022-10-16T07:28:54;99225.63;;;14.74;65.39
23281;BME280;11809;56.390;-3.266;2022-10-16T07:31:22;99245.44;;;14.79;65.29
23281;BME280;11809;56.390;-3.266;2022-10-16T07:33:49;99240.03;;;14.81;64.84
23281;BME280;11809;56.390;-3.266;2022-10-16T07:36:18;99249.50;;;14.83;65.02
23281;BME280;11809;56.390;-3.266;2022-10-16T07:38:46;99248.44;;;14.86;64.89
23281;BME280;11809;56.390;-3.266;2022-10-16T07:41:16;99262.50;;;14.86;64.78
23281;BME280;11809;56.390;-3.266;2022-10-16T07:43:48;99263.22;;;14.88;64.78
23281;BME280;11809;56.390;-3.266;2022-10-16T07:46:16;99288.34;;;14.94;64.47
23281;BME280;11809;56.390;-3.266;2022-10-16T07:48:44;99281.97;;;14.96;64.39
23281;BME280;11809;56.390;-3.266;2022-10-16T07:51:16;99303.03;;;14.98;64.46
23281;BME280;11809;56.390;-3.266;2022-10-16T07:53:43;99307.22;;;15.00;64.34
23281;BME280;11809;56.390;-3.266;2022-10-16T07:56:11;99335.00;;;15.06;64.09
23281;BME280;11809;56.390;-3.266;2022-10-16T07:58:38;99349.78;;;15.08;64.27
23281;BME280;11809;56.390;-3.266;2022-10-16T08:01:07;99369.97;;;15.09;63.42
23281;BME280;11809;56.390;-3.266;2022-10-16T08:03:34;99365.91;;;15.05;62.57
23281;BME280;11809;56.390;-3.266;2022-10-16T08:06:03;99389.00;;;15.03;62.78
23281;BME280;11809;56.390;-3.266;2022-10-16T08:08:30;99392.59;;;15.02;62.52
23281;BME280;11809;56.390;-3.266;2022-10-16T08:10:57;99405.84;;;15.02;62.66
23281;BME280;11809;56.390;-3.266;2022-10-16T08:13:24;99407.75;;;15.00;62.69
23281;BME280;11809;56.390;-3.266;2022-10-16T08:15:53;99412.31;;;14.98;62.65
23281;BME280;11809;56.390;-3.266;2022-10-16T08:18:21;99433.47;;;14.98;62.94
23281;BME280;11809;56.390;-3.266;2022-10-16T08:20:55;99430.72;;;15.00;62.79
23281;BME280;11809;56.390;-3.266;2022-10-16T08:23:22;99426.88;;;14.93;62.76
23281;BME280;11809;56.390;-3.266;2022-10-16T08:25:49;99442.00;;;14.91;62.71
23281;BME280;11809;56.390;-3.266;2022-10-16T08:28:16;99440.44;;;14.88;62.74
23281;BME280;11809;56.390;-3.266;2022-10-16T08:30:43;99451.16;;;14.87;62.62
23281;BME280;11809;56.390;-3.266;2022-10-16T08:33:10;99452.00;;;14.87;62.42
23281;BME280;11809;56.390;-3.266;2022-10-16T08:35:37;99454.38;;;14.90;62.41
23281;BME280;11809;56.390;-3.266;2022-10-16T08:38:05;99476.88;;;14.96;62.89
23281;BME280;11809;56.390;-3.266;2022-10-16T08:40:33;99468.00;;;14.97;63.14
23281;BME280;11809;56.390;-3.266;2022-10-16T08:50:58;99508.53;;;14.97;62.63
23281;BME280;11809;56.390;-3.266;2022-10-16T08:53:38;99507.81;;;14.95;62.42
23281;BME280;11809;56.390;-3.266;2022-10-16T08:56:07;99512.25;;;14.95;62.56
23281;BME280;11809;56.390;-3.266;2022-10-16T08:58:35;99521.13;;;14.94;62.50
23281;BME280;11809;56.390;-3.266;2022-10-16T09:01:04;99525.47;;;14.95;62.61
23281;BME280;11809;56.390;-3.266;2022-10-16T09:06:49;99548.09;;;14.99;62.63
23281;BME280;11809;56.390;-3.266;2022-10-16T09:12:35;99566.81;;;14.96;62.72
23281;BME280;11809;56.390;-3.266;2022-10-16T09:21:09;99593.91;;;14.99;62.51
23281;BME280;11809;56.390;-3.266;2022-10-16T09:23:40;99609.06;;;14.97;62.54
23281;BME280;11809;56.390;-3.266;2022-10-16T09:26:12;99617.84;;;14.98;62.56
23281;BME280;11809;56.390;-3.266;2022-10-16T09:28:40;99620.59;;;14.96;62.72
23281;BME280;11809;56.390;-3.266;2022-10-16T09:31:25;99641.41;;;15.01;62.72
23281;BME280;11809;56.390;-3.266;2022-10-16T09:33:58;99637.72;;;15.03;62.50
23281;BME280;11809;56.390;-3.266;2022-10-16T09:36:27;99656.75;;;15.08;62.61
23281;BME280;11809;56.390;-3.266;2022-10-16T09:39:04;99658.19;;;15.12;62.56
23281;BME280;11809;56.390;-3.266;2022-10-16T09:41:34;99660.47;;;15.17;62.23
23281;BME280;11809;56.390;-3.266;2022-10-16T09:44:05;99661.31;;;15.17;62.12
23281;BME280;11809;56.390;-3.266;2022-10-16T09:46:36;99667.88;;;15.25;61.98
23281;BME280;11809;56.390;-3.266;2022-10-16T09:49:24;99685.19;;;15.29;61.94
23281;BME280;11809;56.390;-3.266;2022-10-16T09:52:06;99686.91;;;15.30;61.83
23281;BME280;11809;56.390;-3.266;2022-10-16T09:54:33;99695.13;;;15.38;61.93
23281;BME280;11809;56.390;-3.266;2022-10-16T09:57:07;99710.66;;;15.42;61.79
23281;BME280;11809;56.390;-3.266;2022-10-16T09:59:34;99708.44;;;15.49;61.81
23281;BME280;11809;56.390;-3.266;2022-10-16T10:02:03;99718.53;;;15.55;61.87
23281;BME280;11809;56.390;-3.266;2022-10-16T10:05:01;99715.44;;;15.61;61.65
23281;BME280;11809;56.390;-3.266;2022-10-16T10:07:41;99721.47;;;15.63;61.24
23281;BME280;11809;56.390;-3.266;2022-10-16T10:10:24;99726.31;;;15.69;61.49
23281;BME280;11809;56.390;-3.266;2022-10-16T10:12:52;99728.59;;;15.73;61.38
23281;BME280;11809;56.390;-3.266;2022-10-16T10:15:19;99724.88;;;15.76;61.55
23281;BME280;11809;56.390;-3.266;2022-10-16T10:17:54;99731.72;;;15.78;61.13
23281;BME280;11809;56.390;-3.266;2022-10-16T10:20:39;99740.16;;;15.84;61.01
23281;BME280;11809;56.390;-3.266;2022-10-16T10:23:24;99737.28;;;15.87;60.86
23281;BME280;11809;56.390;-3.266;2022-10-16T10:31:38;99764.06;;;15.95;60.76
23281;BME280;11809;56.390;-3.266;2022-10-16T10:36:54;99778.41;;;16.03;60.78
23281;BME280;11809;56.390;-3.266;2022-10-16T10:39:30;99787.22;;;16.04;60.66
23281;BME280;11809;56.390;-3.266;2022-10-16T10:45:22;99798.94;;;16.12;60.66
23281;BME280;11809;56.390;-3.266;2022-10-16T10:50:43;99807.38;;;16.17;60.67
23281;BME280;11809;56.390;-3.266;2022-10-16T10:56:19;99834.59;;;16.19;60.66
23281;BME280;11809;56.390;-3.266;2022-10-16T11:02:13;99851.94;;;16.23;60.71
23281;BME280;11809;56.390;-3.266;2022-10-16T11:04:55;99859.91;;;16.23;60.79
23281;BME280;11809;56.390;-3.266;2022-10-16T11:07:29;99863.06;;;16.28;60.80
23281;BME280;11809;56.390;-3.266;2022-10-16T11:10:02;99867.53;;;16.28;60.59
23281;BME280;11809;56.390;-3.266;2022-10-16T11:12:39;99885.88;;;16.31;60.65
23281;BME280;11809;56.390;-3.266;2022-10-16T11:15:17;99892.13;;;16.30;60.44
23281;BME280;11809;56.390;-3.266;2022-10-16T11:17:52;99902.09;;;16.26;60.58
23281;BME280;11809;56.390;-3.266;2022-10-16T11:20:25;99911.03;;;16.25;60.41
23281;BME280;11809;56.390;-3.266;2022-10-16T11:23:14;99912.84;;;16.25;60.32
23281;BME280;11809;56.390;-3.266;2022-10-16T11:25:43;99919.22;;;16.22;60.32
23281;BME280;11809;56.390;-3.266;2022-10-16T11:28:27;99930.75;;;16.21;60.41
23281;BME280;11809;56.390;-3.266;2022-10-16T11:31:00;99930.16;;;16.18;60.26
23281;BME280;11809;56.390;-3.266;2022-10-16T11:33:41;99934.72;;;16.16;60.19
23281;BME280;11809;56.390;-3.266;2022-10-16T11:41:28;99956.78;;;16.16;60.50
23281;BME280;11809;56.390;-3.266;2022-10-16T11:46:35;99966.44;;;16.17;60.19
23281;BME280;11809;56.390;-3.266;2022-10-16T11:49:26;99968.09;;;16.18;60.49
23281;BME280;11809;56.390;-3.266;2022-10-16T11:52:33;99970.16;;;16.15;60.49
23281;BME280;11809;56.390;-3.266;2022-10-16T11:57:38;99987.84;;;16.14;60.50
23281;BME280;11809;56.390;-3.266;2022-10-16T12:03:17;99995.69;;;16.16;60.71
23281;BME280;11809;56.390;-3.266;2022-10-16T12:08:47;100001.00;;;16.16;60.68
23281;BME280;11809;56.390;-3.266;2022-10-16T12:16:33;100014.16;;;16.17;60.84
23281;BME280;11809;56.390;-3.266;2022-10-16T12:19:14;100019.44;;;16.17;60.85
23281;BME280;11809;56.390;-3.266;2022-10-16T12:21:43;100017.53;;;16.19;59.89
23281;BME280;11809;56.390;-3.266;2022-10-16T12:24:36;100030.78;;;16.19;57.51
23281;BME280;11809;56.390;-3.266;2022-10-16T12:27:06;100032.56;;;16.19;56.91
23281;BME280;11809;56.390;-3.266;2022-10-16T12:29:41;100039.69;;;16.18;56.62
23281;BME280;11809;56.390;-3.266;2022-10-16T12:32:29;100037.78;;;16.20;56.54
23281;BME280;11809;56.390;-3.266;2022-10-16T12:35:26;100047.63;;;16.18;55.59
23281;BME280;11809;56.390;-3.266;2022-10-16T12:37:54;100056.56;;;16.17;55.24
23281;BME280;11809;56.390;-3.266;2022-10-16T12:40:33;100047.63;;;16.18;55.59
23281;BME280;11809;56.390;-3.266;2022-10-16T12:46:21;100065.47;;;16.16;54.80
23281;BME280;11809;56.390;-3.266;2022-10-16T12:48:47;100074.06;;;16.20;54.85
23281;BME280;11809;56.390;-3.266;2022-10-16T12:54:02;100074.56;;;16.25;55.01
23281;BME280;11809;56.390;-3.266;2022-10-16T12:59:53;100082.19;;;16.29;54.96
23281;BME280;11809;56.390;-3.266;2022-10-16T13:02:53;100080.50;;;16.28;53.39
23281;BME280;11809;56.390;-3.266;2022-10-16T13:05:33;100090.03;;;16.31;54.09
23281;BME280;11809;56.390;-3.266;2022-10-16T13:11:14;100093.28;;;16.34;53.76
23281;BME280;11809;56.390;-3.266;2022-10-16T13:28:14;100129.56;;;16.34;56.87
23281;BME280;11809;56.390;-3.266;2022-10-16T13:30:52;100128.75;;;16.33;55.94
23281;BME280;11809;56.390;-3.266;2022-10-16T13:33:30;100134.78;;;16.35;57.05
23281;BME280;11809;56.390;-3.266;2022-10-16T13:35:59;100132.84;;;16.37;57.52
23281;BME280;11809;56.390;-3.266;2022-10-16T13:38:28;100138.06;;;16.39;57.66
23281;BME280;11809;56.390;-3.266;2022-10-16T13:41:15;100139.88;;;16.38;57.80
23281;BME280;11809;56.390;-3.266;2022-10-16T13:43:49;100138.88;;;16.39;57.84
23281;BME280;11809;56.390;-3.266;2022-10-16T13:46:19;100133.50;;;16.41;58.15
23281;BME280;11809;56.390;-3.266;2022-10-16T13:48:57;100140.38;;;16.44;58.25
23281;BME280;11809;56.390;-3.266;2022-10-16T13:51:25;100148.34;;;16.44;58.41
23281;BME280;11809;56.390;-3.266;2022-10-16T13:53:55;100149.28;;;16.43;58.60
23281;BME280;11809;56.390;-3.266;2022-10-16T13:56:25;100151.94;;;16.43;58.76
23281;BME280;11809;56.390;-3.266;2022-10-16T14:01:32;100151.72;;;16.46;58.83
23281;BME280;11809;56.390;-3.266;2022-10-16T14:04:03;100170.06;;;16.49;58.92
23281;BME280;11809;56.390;-3.266;2022-10-16T14:06:32;100176.31;;;16.48;58.98
23281;BME280;11809;56.390;-3.266;2022-10-16T14:11:26;100171.00;;;16.48;59.19
23281;BME280;11809;56.390;-3.266;2022-10-16T14:13:54;100180.03;;;16.45;59.30
23281;BME280;11809;56.390;-3.266;2022-10-16T14:16:23;100193.94;;;16.49;59.21
23281;BME280;11809;56.390;-3.266;2022-10-16T14:19:02;100184.41;;;16.46;59.22
23281;BME280;11809;56.390;-3.266;2022-10-16T14:21:33;100190.56;;;16.47;59.28
23281;BME280;11809;56.390;-3.266;2022-10-16T14:24:10;100198.38;;;16.48;59.31
23281;BME280;11809;56.390;-3.266;2022-10-16T14:26:43;100208.16;;;16.48;59.35
23281;BME280;11809;56.390;-3.266;2022-10-16T14:29:19;100207.06;;;16.50;59.23
23281;BME280;11809;56.390;-3.266;2022-10-16T14:31:58;100218.53;;;16.51;59.35
23281;BME280;11809;56.390;-3.266;2022-10-16T14:34:26;100216.88;;;16.50;59.22
23281;BME280;11809;56.390;-3.266;2022-10-16T14:36:55;100219.50;;;16.50;59.28
23281;BME280;11809;56.390;-3.266;2022-10-16T14:39:22;100223.13;;;16.49;59.29
23281;BME280;11809;56.390;-3.266;2022-10-16T14:41:54;100232.78;;;16.50;59.24
23281;BME280;11809;56.390;-3.266;2022-10-16T14:44:29;100236.38;;;16.49;59.32
23281;BME280;11809;56.390;-3.266;2022-10-16T14:46:58;100239.16;;;16.47;59.57
23281;BME280;11809;56.390;-3.266;2022-10-16T14:49:33;100242.88;;;16.45;59.71
23281;BME280;11809;56.390;-3.266;2022-10-16T14:52:00;100246.34;;;16.45;59.91
23281;BME280;11809;56.390;-3.266;2022-10-16T14:54:28;100253.47;;;16.45;59.87
23281;BME280;11809;56.390;-3.266;2022-10-16T14:56:57;100255.06;;;16.47;59.95
23281;BME280;11809;56.390;-3.266;2022-10-16T14:59:38;100256.13;;;16.45;59.71
23281;BME280;11809;56.390;-3.266;2022-10-16T15:02:30;100262.16;;;16.47;59.82
23281;BME280;11809;56.390;-3.266;2022-10-16T15:05:12;100267.69;;;16.44;59.92
23281;BME280;11809;56.390;-3.266;2022-10-16T15:07:39;100276.50;;;16.44;60.27